Friday, October 19, 2018, 9:56 PM GMT
Back to Local

CWPE, Point Lepreau, N. B.

Location: , , Canada Lat: 45.067
Local Time: 9:56 PM GMT (21:56 GMT) Lon: -66.467
Time Zone: GMT Elev: 3 ft

Show me the last for .
Show Coded

Time T Td Feel RH Dir Speed Gust Alt SLP Vis Weather Sky Remarks
2018-10-19 21:00 48 39 41 69 210° 14 20 - 29.96 0 Peak wind: 19 mph (17 kts) from 230° at 00 min
2018-10-19 20:00 47 36 41 64 200° 12 18 - 29.98 0 None
2018-10-19 19:00 47 32 43 55 210° 7 - - 30.01 0 None
2018-10-19 18:00 43 28 40 54 250° 6 - - 30.03 0 None
2018-10-19 17:00 43 29 39 58 250° 6 - - 30.06 0 None
2018-10-19 16:00 41 26 37 53 260° 6 - - 30.09 0 None
2018-10-19 15:00 40 24 35 53 280° 7 - - 30.11 0 None
2018-10-19 14:00 39 24 34 53 290° 7 - - 30.13 0 None
2018-10-19 13:00 35 22 28 60 300° 8 - - 30.13 0 None
2018-10-19 12:00 36 23 31 58 300° 7 - - 30.13 0 None
2018-10-19 11:00 34 20 27 56 290° 8 - - 30.12 0 None
2018-10-19 10:00 34 21 28 58 290° 7 - - 30.11 0 None
2018-10-19 09:00 33 20 27 57 310° 7 - - 30.12 0 None
2018-10-19 08:00 33 19 26 54 300° 8 - - 30.12 0 None
2018-10-19 07:00 33 19 26 54 300° 8 - - 30.10 0 None
2018-10-19 06:00 33 19 27 54 300° 8 - - 30.09 0 None
2018-10-19 05:00 33 19 22 54 300° 9 18 - 30.09 0 Peak wind: 21 mph (19 kts) from 280° at 08 min
2018-10-19 04:00 34 20 23 56 300° 9 18 - 30.08 0 Peak wind: 21 mph (19 kts) from 290° at 02 min
2018-10-19 03:00 35 21 22 57 300° 13 24 - 30.07 0 Peak wind: 24 mph (21 kts) from 280° at 51 min
2018-10-19 02:00 35 22 23 59 300° 10 20 - 30.07 0 Peak wind: 25 mph (22 kts) from 310° at 44 min
2018-10-19 01:00 35 23 24 60 310° 10 22 - 30.05 0 Peak wind: 25 mph (22 kts) from 300° at 19 min
2018-10-19 00:00 36 22 25 55 300° 13 22 - 30.01 0 Peak wind: 24 mph (21 kts) from 300° at 00 min
2018-10-18 23:00 37 22 25 53 300° 13 26 - 29.99 0 Peak wind: 26 mph (23 kts) from 290° at 53 min
2018-10-18 22:00 37 20 25 51 310° 14 23 - 29.96 0 Peak wind: 27 mph (24 kts) from 310° at 10 min

Support USWX by starting your Amazon purchase here.